createdAt,value
2022-09-07T00:01:03.797Z,100790.98
2022-09-07T00:03:31.753Z,100793.63
2022-09-07T00:05:59.423Z,100791.23
2022-09-07T00:08:27.500Z,100793.33
2022-09-07T00:11:02.025Z,100792.33
2022-09-07T00:13:33.172Z,100789.41
2022-09-07T00:16:06.738Z,100784.77
2022-09-07T00:18:35.007Z,100783.77
2022-09-07T00:21:09.140Z,100781.38
2022-09-07T00:23:39.336Z,100785.73
2022-09-07T00:26:13.891Z,100785.59
2022-09-07T00:28:43.255Z,100785.11
2022-09-07T00:31:13.163Z,100783.20
2022-09-07T00:33:41.945Z,100783.02
2022-09-07T00:36:10.333Z,100776.60
2022-09-07T00:38:37.873Z,100778.02
2022-09-07T00:41:06.237Z,100778.20
2022-09-07T00:43:44.014Z,100781.50
2022-09-07T00:46:18.432Z,100780.46
2022-09-07T00:49:11.778Z,100782.73
2022-09-07T00:51:49.063Z,100776.68
2022-09-07T00:54:24.636Z,100780.86
2022-09-07T00:56:53.541Z,100782.45
2022-09-07T00:59:29.409Z,100784.36
2022-09-07T01:01:57.827Z,100780.89
2022-09-07T01:04:26.015Z,100784.91
2022-09-07T01:06:55.318Z,100785.09
2022-09-07T01:09:27.806Z,100783.02
2022-09-07T01:11:59.292Z,100787.90
2022-09-07T01:14:31.713Z,100786.70
2022-09-07T01:17:15.149Z,100783.77
2022-09-07T01:20:08.427Z,100788.33
2022-09-07T01:23:08.106Z,100782.80
2022-09-07T01:25:45.362Z,100777.10
2022-09-07T01:28:25.183Z,100777.45
2022-09-07T01:31:14.559Z,100772.10
2022-09-07T01:34:13.907Z,100772.96
2022-09-07T01:36:56.615Z,100771.79
2022-09-07T01:39:33.185Z,100768.84
2022-09-07T01:42:14.177Z,100771.13
2022-09-07T01:44:47.777Z,100768.71
2022-09-07T01:47:24.555Z,100768.57
2022-09-07T01:49:59.557Z,100768.73
2022-09-07T01:52:59.061Z,100769.64
2022-09-07T01:55:38.944Z,100774.53
2022-09-07T01:58:06.335Z,100772.29
2022-09-07T02:00:37.214Z,100771.63
2022-09-07T02:03:19.815Z,100768.01
2022-09-07T02:06:06.437Z,100767.86
2022-09-07T02:08:40.758Z,100764.92
2022-09-07T02:11:13.561Z,100764.42
2022-09-07T02:13:58.438Z,100764.27
2022-09-07T02:16:29.722Z,100763.95
2022-09-07T02:19:04.613Z,100766.75
2022-09-07T02:21:41.564Z,100764.52
2022-09-07T02:24:23.165Z,100760.56
2022-09-07T02:26:54.464Z,100759.73
2022-09-07T02:29:22.401Z,100760.43
2022-09-07T02:31:51.342Z,100756.64
2022-09-07T02:34:19.009Z,100757.17
2022-09-07T02:36:49.156Z,100756.49
2022-09-07T02:39:17.052Z,100752.87
2022-09-07T02:41:46.052Z,100751.67
2022-09-07T02:44:23.434Z,100748.23
2022-09-07T02:47:11.599Z,100748.42
2022-09-07T02:49:48.018Z,100746.20
2022-09-07T02:52:38.446Z,100744.30
2022-09-07T02:55:09.032Z,100743.63
2022-09-07T02:57:55.577Z,100743.30
2022-09-07T03:00:26.537Z,100747.65
2022-09-07T03:03:13.100Z,100746.29
2022-09-07T03:05:46.860Z,100742.67
2022-09-07T03:08:26.098Z,100744.23
2022-09-07T03:10:54.736Z,100743.19
2022-09-07T03:13:25.959Z,100741.98
2022-09-07T03:15:56.189Z,100741.60
2022-09-07T03:18:25.917Z,100738.14
2022-09-07T03:20:53.904Z,100738.13
2022-09-07T03:23:21.683Z,100735.89
2022-09-07T03:25:49.178Z,100734.13
2022-09-07T03:28:17.507Z,100737.96
2022-09-07T03:30:49.652Z,100734.34
2022-09-07T03:33:17.410Z,100733.83
2022-09-07T03:35:46.195Z,100735.06
2022-09-07T03:38:13.742Z,100733.85
2022-09-07T03:40:41.366Z,100733.87
2022-09-07T03:43:08.808Z,100735.45
2022-09-07T03:45:36.388Z,100734.94
2022-09-07T03:48:03.884Z,100738.58
2022-09-07T03:50:31.341Z,100738.25
2022-09-07T03:52:58.814Z,100738.95
2022-09-07T03:55:26.375Z,100738.27
2022-09-07T03:57:53.879Z,100739.52
2022-09-07T04:00:21.401Z,100745.07
2022-09-07T04:02:48.944Z,100748.20
2022-09-07T04:05:17.734Z,100749.77
2022-09-07T04:07:48.325Z,100748.05
2022-09-07T04:10:15.953Z,100753.08
2022-09-07T04:12:43.454Z,100760.70
2022-09-07T04:15:10.989Z,100756.70
2022-09-07T04:17:39.687Z,100755.14
2022-09-07T04:20:07.971Z,100756.34
2022-09-07T04:22:35.514Z,100756.36
2022-09-07T04:25:03.150Z,100755.67
2022-09-07T04:27:31.156Z,100750.65
2022-09-07T04:29:58.618Z,100745.08
2022-09-07T04:32:26.096Z,100746.64
2022-09-07T04:34:54.534Z,100746.13
2022-09-07T04:37:22.515Z,100747.66
2022-09-07T04:39:50.135Z,100745.23
2022-09-07T04:42:18.761Z,100750.23
2022-09-07T04:44:49.772Z,100745.18
2022-09-07T04:47:17.754Z,100748.63
2022-09-07T04:49:45.242Z,100748.08
2022-09-07T04:52:12.766Z,100751.34
2022-09-07T04:54:40.373Z,100751.98
2022-09-07T04:57:11.391Z,100749.70
2022-09-07T04:59:38.861Z,100747.23
2022-09-07T05:02:06.540Z,100749.41
2022-09-07T05:04:37.286Z,100746.58
2022-09-07T05:07:06.962Z,100744.42
2022-09-07T05:09:34.558Z,100743.65
2022-09-07T05:12:02.859Z,100741.81
2022-09-07T05:14:30.358Z,100746.39
2022-09-07T05:16:58.098Z,100742.28
2022-09-07T05:19:28.853Z,100739.73
2022-09-07T05:21:59.858Z,100739.27
2022-09-07T05:24:27.413Z,100739.16
2022-09-07T05:26:54.996Z,100736.61
2022-09-07T05:32:13.512Z,100725.11
2022-09-07T05:34:48.507Z,100720.53
2022-09-07T05:37:17.421Z,100718.89
2022-09-07T05:39:44.947Z,100718.79
2022-09-07T05:42:12.576Z,100722.16
2022-09-07T05:44:46.679Z,100719.79
2022-09-07T05:47:14.900Z,100722.86
2022-09-07T05:49:42.602Z,100719.80
2022-09-07T05:52:10.087Z,100717.45
2022-09-07T05:54:38.174Z,100711.41
2022-09-07T05:57:07.287Z,100709.01
2022-09-07T05:59:35.182Z,100715.96
2022-09-07T06:02:02.933Z,100720.85
2022-09-07T06:04:39.188Z,100715.46
2022-09-07T06:07:28.501Z,100708.43
2022-09-07T06:12:49.242Z,100702.79
2022-09-07T06:15:17.729Z,100703.33
2022-09-07T06:17:48.785Z,100706.66
2022-09-07T06:20:16.285Z,100709.11
2022-09-07T06:22:43.753Z,100714.02
2022-09-07T06:25:11.203Z,100711.60
2022-09-07T06:27:38.728Z,100708.30
2022-09-07T06:30:07.486Z,100709.90
2022-09-07T06:32:46.006Z,100718.66
2022-09-07T06:35:14.781Z,100723.02
2022-09-07T06:37:42.747Z,100726.67
2022-09-07T06:40:12.089Z,100725.31
2022-09-07T06:42:39.962Z,100724.11
2022-09-07T06:45:09.887Z,100723.38
2022-09-07T06:47:38.749Z,100717.96
2022-09-07T06:50:09.538Z,100713.75
2022-09-07T06:55:28.064Z,100709.08
2022-09-07T06:57:56.620Z,100708.17
2022-09-07T07:00:28.514Z,100700.95
2022-09-07T07:02:56.137Z,100699.85
2022-09-07T07:05:23.730Z,100694.04
2022-09-07T07:07:51.262Z,100693.93
2022-09-07T07:10:24.245Z,100693.64
2022-09-07T07:12:57.503Z,100693.53
2022-09-07T07:15:28.310Z,100696.92
2022-09-07T07:18:00.336Z,100699.04
2022-09-07T07:20:35.811Z,100697.52
2022-09-07T07:23:03.481Z,100697.58
2022-09-07T07:25:31.226Z,100700.44
2022-09-07T07:30:46.173Z,100701.36
2022-09-07T07:33:16.386Z,100703.54
2022-09-07T07:35:44.166Z,100704.48
2022-09-07T07:43:47.229Z,100707.19
2022-09-07T07:46:16.601Z,100701.80
2022-09-07T07:48:48.817Z,100700.40
2022-09-07T07:54:20.667Z,100690.42
2022-09-07T07:56:48.154Z,100695.43
2022-09-07T07:59:16.124Z,100698.59
2022-09-07T08:01:44.053Z,100698.02
2022-09-07T08:04:11.732Z,100692.66
2022-09-07T08:06:43.296Z,100691.31
2022-09-07T08:09:12.109Z,100687.04
2022-09-07T08:11:40.463Z,100685.10
2022-09-07T08:14:09.164Z,100682.02
2022-09-07T08:16:37.808Z,100682.27
2022-09-07T08:19:05.756Z,100680.44
2022-09-07T08:21:36.791Z,100679.70
2022-09-07T08:24:04.772Z,100679.04
2022-09-07T08:26:32.857Z,100683.84
2022-09-07T08:29:00.507Z,100678.66
2022-09-07T08:31:28.948Z,100675.84
2022-09-07T08:34:00.149Z,100675.79
2022-09-07T08:36:31.980Z,100671.58
2022-09-07T08:39:00.012Z,100666.38
2022-09-07T08:41:47.468Z,100662.53
2022-09-07T08:44:24.341Z,100658.48
2022-09-07T08:47:00.594Z,100658.48
2022-09-07T08:50:03.398Z,100659.25
2022-09-07T08:52:55.605Z,100653.09
2022-09-07T08:55:31.261Z,100653.39
2022-09-07T08:58:45.279Z,100651.58
2022-09-07T09:01:34.502Z,100655.42
2022-09-07T09:04:20.752Z,100652.94
2022-09-07T09:07:05.524Z,100651.35
2022-09-07T09:09:46.036Z,100646.33
2022-09-07T09:12:38.046Z,100638.63
2022-09-07T09:15:30.841Z,100636.98
2022-09-07T09:18:17.496Z,100637.14
2022-09-07T09:20:55.658Z,100636.23
2022-09-07T09:23:31.000Z,100631.00
2022-09-07T09:26:10.375Z,100632.06
2022-09-07T09:28:39.248Z,100629.68
2022-09-07T09:31:19.988Z,100629.91
2022-09-07T09:34:09.532Z,100625.13
2022-09-07T09:36:55.256Z,100623.16
2022-09-07T09:39:39.938Z,100620.17
2022-09-07T09:42:10.275Z,100623.75
2022-09-07T09:44:45.961Z,100622.61
2022-09-07T09:47:32.742Z,100624.31
2022-09-07T09:53:37.574Z,100622.10
2022-09-07T09:56:06.642Z,100622.50
2022-09-07T10:01:35.967Z,100625.35
2022-09-07T10:04:36.106Z,100620.66
2022-09-07T10:07:19.508Z,100611.60
2022-09-07T10:09:57.003Z,100611.53
2022-09-07T10:12:34.308Z,100613.02
2022-09-07T10:15:05.987Z,100605.16
2022-09-07T10:17:41.700Z,100600.27
2022-09-07T10:20:20.012Z,100605.25
2022-09-07T10:22:53.513Z,100607.01
2022-09-07T10:25:39.587Z,100607.35
2022-09-07T10:28:10.956Z,100596.90
2022-09-07T10:31:14.786Z,100585.83
2022-09-07T10:37:04.117Z,100579.77
2022-09-07T10:39:36.917Z,100577.86
2022-09-07T10:42:36.810Z,100573.73
2022-09-07T10:45:31.252Z,100574.20
2022-09-07T10:48:18.290Z,100572.29
2022-09-07T10:51:03.119Z,100566.31
2022-09-07T10:57:03.000Z,100567.60
2022-09-07T11:00:10.966Z,100562.63
2022-09-07T11:03:24.929Z,100559.94
2022-09-07T11:05:48.881Z,100557.38
2022-09-07T11:09:15.049Z,100548.58
2022-09-07T11:14:23.587Z,100552.79
2022-09-07T11:17:03.314Z,100550.59
2022-09-07T11:19:39.887Z,100550.36
2022-09-07T11:22:39.435Z,100549.30
2022-09-07T11:25:31.590Z,100549.44
2022-09-07T11:28:08.447Z,100551.42
2022-09-07T11:30:51.024Z,100554.41
2022-09-07T11:33:34.410Z,100552.30
2022-09-07T11:36:23.150Z,100548.92
2022-09-07T11:39:26.950Z,100544.60
2022-09-07T11:44:59.704Z,100542.89
2022-09-07T11:47:39.479Z,100542.66
2022-09-07T11:50:19.187Z,100539.16
2022-09-07T11:52:59.178Z,100543.45
2022-09-07T11:55:32.807Z,100533.83
2022-09-07T11:58:12.991Z,100531.89
2022-09-07T12:01:11.727Z,100531.35
2022-09-07T12:04:16.328Z,100531.48
2022-09-07T12:07:09.109Z,100531.38
2022-09-07T12:09:58.015Z,100523.44
2022-09-07T12:12:58.250Z,100519.56
2022-09-07T12:15:28.457Z,100519.90
2022-09-07T12:18:16.216Z,100519.29
2022-09-07T12:20:46.113Z,100518.73
2022-09-07T12:23:18.152Z,100521.30
2022-09-07T12:25:49.472Z,100517.09
2022-09-07T12:28:23.760Z,100509.79
2022-09-07T12:31:04.442Z,100508.42
2022-09-07T12:33:38.284Z,100507.92
2022-09-07T12:36:26.821Z,100506.66
2022-09-07T12:39:28.127Z,100502.43
2022-09-07T12:45:43.835Z,100490.79
2022-09-07T12:48:26.439Z,100490.30
2022-09-07T12:54:28.708Z,100486.83
2022-09-07T12:57:33.146Z,100484.54
2022-09-07T13:00:20.053Z,100481.10
2022-09-07T13:07:01.709Z,100475.95
2022-09-07T13:09:32.843Z,100471.47
2022-09-07T13:12:04.643Z,100467.60
2022-09-07T13:14:36.848Z,100471.41
2022-09-07T13:17:29.445Z,100467.97
2022-09-07T13:19:56.925Z,100467.23
2022-09-07T13:22:30.195Z,100468.39
2022-09-07T13:25:23.572Z,100466.02
2022-09-07T13:27:57.266Z,100465.30
2022-09-07T13:30:45.299Z,100462.71
2022-09-07T13:33:34.763Z,100458.20
2022-09-07T13:36:05.136Z,100450.94
2022-09-07T13:38:36.552Z,100439.42
2022-09-07T13:41:12.284Z,100435.54
2022-09-07T13:43:40.258Z,100433.92
2022-09-07T13:46:39.681Z,100432.73
2022-09-07T13:49:25.551Z,100433.96
2022-09-07T13:52:22.297Z,100429.40
2022-09-07T13:55:25.979Z,100426.29
2022-09-07T13:58:17.972Z,100424.77
2022-09-07T14:00:58.238Z,100420.70
2022-09-07T14:03:29.920Z,100421.39
2022-09-07T14:06:33.738Z,100422.22
2022-09-07T14:09:03.614Z,100421.17
2022-09-07T14:11:49.208Z,100423.16
2022-09-07T14:14:19.830Z,100420.64
2022-09-07T14:16:52.213Z,100419.66
2022-09-07T14:19:24.085Z,100417.52
2022-09-07T14:22:19.052Z,100419.67
2022-09-07T14:25:07.433Z,100415.50
2022-09-07T14:27:36.306Z,100417.96
2022-09-07T14:30:26.409Z,100416.89
2022-09-07T14:32:56.789Z,100415.52
2022-09-07T14:35:43.058Z,100418.66
2022-09-07T14:38:14.522Z,100411.02
2022-09-07T14:40:42.676Z,100408.98
2022-09-07T14:43:28.101Z,100407.30
2022-09-07T14:46:24.008Z,100401.11
2022-09-07T14:48:55.329Z,100396.41
2022-09-07T14:51:35.699Z,100390.11
2022-09-07T14:54:06.733Z,100391.67
2022-09-07T14:56:37.591Z,100393.42
2022-09-07T14:59:37.059Z,100391.98
2022-09-07T15:02:25.611Z,100382.56
2022-09-07T15:05:15.225Z,100385.36
2022-09-07T15:07:48.206Z,100384.33
2022-09-07T15:10:25.579Z,100381.05
2022-09-07T15:12:56.472Z,100379.86
2022-09-07T15:15:40.626Z,100383.48
2022-09-07T15:18:40.152Z,100381.88
2022-09-07T15:21:10.555Z,100387.31
2022-09-07T15:23:39.329Z,100379.14
2022-09-07T15:27:01.874Z,100372.94
2022-09-07T15:29:14.224Z,100368.08
2022-09-07T15:31:47.282Z,100364.70
2022-09-07T15:34:22.018Z,100364.63
2022-09-07T15:36:52.208Z,100361.17
2022-09-07T15:39:22.463Z,100358.54
2022-09-07T15:41:51.705Z,100359.30
2022-09-07T15:44:24.379Z,100360.39
2022-09-07T15:49:49.544Z,100358.66
2022-09-07T15:52:18.168Z,100359.88
2022-09-07T15:54:45.729Z,100362.83
2022-09-07T16:00:00.670Z,100362.81
2022-09-07T16:05:16.266Z,100357.85
2022-09-07T16:10:31.790Z,100362.09
2022-09-07T16:13:02.299Z,100359.77
2022-09-07T16:15:32.206Z,100356.40
2022-09-07T16:18:00.844Z,100359.70
2022-09-07T16:20:31.879Z,100359.08
2022-09-07T16:23:15.921Z,100361.98
2022-09-07T16:25:59.125Z,100362.88
2022-09-07T16:28:28.003Z,100363.93
2022-09-07T16:30:56.622Z,100362.44
2022-09-07T16:33:33.101Z,100357.65
2022-09-07T16:36:09.174Z,100357.14
2022-09-07T16:38:45.657Z,100362.07
2022-09-07T16:41:20.441Z,100358.77
2022-09-07T16:43:48.346Z,100357.89
2022-09-07T16:46:19.179Z,100352.63
2022-09-07T16:48:47.670Z,100350.61
2022-09-07T16:51:18.672Z,100351.58
2022-09-07T16:53:48.951Z,100351.48
2022-09-07T16:56:19.376Z,100358.70
2022-09-07T16:58:52.885Z,100357.06
2022-09-07T17:01:26.943Z,100353.10
2022-09-07T17:03:54.738Z,100358.61
2022-09-07T17:06:24.985Z,100357.65
2022-09-07T17:08:53.131Z,100358.55
2022-09-07T17:11:25.925Z,100361.77
2022-09-07T17:13:55.704Z,100362.43
2022-09-07T17:16:26.150Z,100363.88
2022-09-07T17:21:41.865Z,100372.11
2022-09-07T17:24:10.938Z,100374.23
2022-09-07T17:26:42.175Z,100370.48
2022-09-07T17:29:13.189Z,100367.51
2022-09-07T17:34:31.619Z,100367.35
2022-09-07T17:37:00.680Z,100370.21
2022-09-07T17:39:29.731Z,100378.48
2022-09-07T17:41:57.777Z,100380.79
2022-09-07T17:44:25.294Z,100378.20
2022-09-07T17:46:52.939Z,100378.58
2022-09-07T17:49:20.418Z,100377.73
2022-09-07T17:51:48.202Z,100379.98
2022-09-07T17:54:17.891Z,100386.12
2022-09-07T17:56:46.006Z,100389.20
2022-09-07T18:02:01.723Z,100392.75
2022-09-07T18:04:29.251Z,100392.81
2022-09-07T18:06:56.719Z,100390.72
2022-09-07T18:09:24.262Z,100389.67
2022-09-07T18:11:51.666Z,100391.64
2022-09-07T18:14:19.706Z,100391.47
2022-09-07T18:16:49.810Z,100391.27
2022-09-07T18:19:18.844Z,100388.91
2022-09-07T18:21:47.971Z,100386.72
2022-09-07T18:24:19.286Z,100388.86
2022-09-07T18:26:51.321Z,100386.45
2022-09-07T18:29:29.371Z,100387.85
2022-09-07T18:32:00.588Z,100387.25
2022-09-07T18:34:29.471Z,100388.53
2022-09-07T18:36:58.317Z,100393.30
2022-09-07T18:39:27.109Z,100389.83
2022-09-07T18:41:55.798Z,100401.23
2022-09-07T18:47:23.282Z,100399.83
2022-09-07T18:49:55.715Z,100398.98
2022-09-07T18:55:10.683Z,100396.11
2022-09-07T18:57:38.381Z,100395.64
2022-09-07T19:00:09.020Z,100395.02
2022-09-07T19:02:36.862Z,100398.54
2022-09-07T19:07:52.479Z,100396.51
2022-09-07T19:10:20.058Z,100397.88
2022-09-07T19:12:47.569Z,100400.14
2022-09-07T19:15:15.071Z,100401.86
2022-09-07T19:17:42.618Z,100397.47
2022-09-07T19:20:10.291Z,100394.45
2022-09-07T19:22:38.930Z,100387.81
2022-09-07T19:25:06.619Z,100393.77
2022-09-07T19:27:34.783Z,100397.92
2022-09-07T19:30:02.389Z,100399.81
2022-09-07T19:32:29.899Z,100396.59
2022-09-07T19:34:57.619Z,100392.48
2022-09-07T19:37:26.096Z,100394.48
2022-09-07T19:39:57.345Z,100397.57
2022-09-07T19:42:25.734Z,100395.88
2022-09-07T19:44:54.203Z,100394.41
2022-09-07T19:47:22.023Z,100392.41
2022-09-07T19:49:49.483Z,100392.64
2022-09-07T19:52:16.898Z,100394.82
2022-09-07T19:54:44.322Z,100399.59
2022-09-07T19:57:11.764Z,100401.80
2022-09-07T19:59:39.567Z,100398.35
2022-09-07T20:02:09.053Z,100401.20
2022-09-07T20:04:36.496Z,100400.61
2022-09-07T20:07:04.105Z,100400.48
2022-09-07T20:09:31.639Z,100401.52
2022-09-07T20:12:01.790Z,100399.95
2022-09-07T20:14:29.303Z,100400.61
2022-09-07T20:16:57.762Z,100401.05
2022-09-07T20:19:25.260Z,100399.05
2022-09-07T20:21:56.403Z,100401.20
2022-09-07T20:24:23.879Z,100398.30
2022-09-07T20:26:51.936Z,100398.03
2022-09-07T20:29:28.546Z,100398.09
2022-09-07T20:32:00.963Z,100398.54
2022-09-07T20:34:29.074Z,100400.05
2022-09-07T20:36:57.302Z,100402.45
2022-09-07T20:39:25.472Z,100402.43
2022-09-07T20:41:53.186Z,100397.31
2022-09-07T20:44:20.697Z,100397.39
2022-09-07T20:46:48.267Z,100397.98
2022-09-07T20:49:16.005Z,100389.70
2022-09-07T20:51:43.514Z,100387.15
2022-09-07T20:54:11.046Z,100389.02
2022-09-07T20:56:38.598Z,100396.82
2022-09-07T20:59:07.185Z,100399.05
2022-09-07T21:01:35.190Z,100398.95
2022-09-07T21:04:03.938Z,100391.36
2022-09-07T21:06:32.547Z,100397.19
2022-09-07T21:09:00.974Z,100395.86
2022-09-07T21:11:34.474Z,100399.23
2022-09-07T21:14:07.773Z,100396.02
2022-09-07T21:16:36.518Z,100395.45
2022-09-07T21:19:10.895Z,100396.14
2022-09-07T21:21:41.186Z,100395.57
2022-09-07T21:24:18.305Z,100400.38
2022-09-07T21:26:47.278Z,100401.75
2022-09-07T21:29:21.057Z,100406.77
2022-09-07T21:31:49.150Z,100407.63
2022-09-07T21:34:16.858Z,100414.33
2022-09-07T21:36:46.247Z,100413.53
2022-09-07T21:39:15.053Z,100411.52
2022-09-07T21:41:44.075Z,100414.23
2022-09-07T21:44:14.847Z,100412.04
2022-09-07T21:46:43.452Z,100410.56
2022-09-07T21:49:11.554Z,100412.95
2022-09-07T21:51:39.105Z,100408.03
2022-09-07T21:54:07.034Z,100409.41
2022-09-07T21:56:34.609Z,100406.75
2022-09-07T21:59:02.596Z,100406.70
2022-09-07T22:01:30.795Z,100408.57
2022-09-07T22:04:02.526Z,100409.93
2022-09-07T22:06:32.210Z,100408.50
2022-09-07T22:09:01.319Z,100411.08
2022-09-07T22:11:29.661Z,100409.95
2022-09-07T22:14:00.414Z,100413.75
2022-09-07T22:16:28.678Z,100415.41
2022-09-07T22:18:56.382Z,100413.23
2022-09-07T22:21:25.729Z,100405.83
2022-09-07T22:23:57.724Z,100405.42
2022-09-07T22:26:27.451Z,100402.55
2022-09-07T22:28:55.870Z,100401.45
2022-09-07T22:31:34.238Z,100397.00
2022-09-07T22:34:04.499Z,100395.50
2022-09-07T22:36:41.682Z,100393.30
2022-09-07T22:39:15.580Z,100390.55
2022-09-07T22:41:44.390Z,100396.55
2022-09-07T22:44:14.822Z,100394.53
2022-09-07T22:46:44.348Z,100391.31
2022-09-07T22:49:15.148Z,100388.46
2022-09-07T22:51:43.955Z,100388.34
2022-09-07T22:54:11.446Z,100387.89
2022-09-07T22:56:39.831Z,100389.50
2022-09-07T22:59:09.006Z,100387.33
2022-09-07T23:01:37.352Z,100382.54
2022-09-07T23:04:05.743Z,100383.30
2022-09-07T23:06:38.602Z,100384.56
2022-09-07T23:09:11.672Z,100383.92
2022-09-07T23:11:39.463Z,100381.03
2022-09-07T23:14:12.706Z,100383.52
2022-09-07T23:16:40.278Z,100385.17
2022-09-07T23:19:09.267Z,100383.63
2022-09-07T23:21:36.684Z,100388.20
2022-09-07T23:24:04.434Z,100387.38
2022-09-07T23:26:32.911Z,100386.89
2022-09-07T23:29:04.225Z,100392.71
2022-09-07T23:31:33.789Z,100394.18
2022-09-07T23:34:01.856Z,100395.98
2022-09-07T23:36:30.589Z,100392.02
2022-09-07T23:38:59.994Z,100388.77
2022-09-07T23:41:28.358Z,100389.21
2022-09-07T23:43:57.070Z,100387.73
2022-09-07T23:46:24.800Z,100386.73
2022-09-07T23:48:52.434Z,100386.10
2022-09-07T23:51:23.903Z,100388.08
2022-09-07T23:53:52.836Z,100391.59
2022-09-07T23:56:24.207Z,100392.17
2022-09-07T23:58:51.806Z,100396.21
